Time;durP1;ratioP1;P1;durP2;ratioP2;P2;SDS_P1;SDS_P2;PMS_P1;PMS_P2;Temp;Humidity;BMP_temperature;BMP_pressure;BME280_temperature;BME280_humidity;BME280_pressure;Samples;Min_cycle;Max_cycle;Signal;HPM_P1;HPM_P2
2023/12/06 00:03:47;;;;;;;2.30;0.83;;;;;;;17.29;51.97;96079.28;10397383;28;20044;-30
2023/12/06 00:08:48;;;;;;;1.63;0.70;;;;;;;17.31;52.47;96077.59;10402680;28;20116;-29
2023/12/06 00:13:49;;;;;;;2.35;0.80;;;;;;;17.30;51.40;96084.34;10401424;28;20029;-32
2023/12/06 00:18:49;;;;;;;2.17;0.90;;;;;;;17.33;50.77;96073.38;10413912;28;20025;-29
2023/12/06 00:23:49;;;;;;;4.25;0.82;;;;;;;17.34;51.18;96078.41;10403127;28;20026;-30
2023/12/06 00:28:50;;;;;;;4.67;0.83;;;;;;;17.31;51.57;96077.59;10397687;28;20495;-31
2023/12/06 00:33:50;;;;;;;1.80;0.60;;;;;;;17.33;51.60;96083.50;10405166;28;20284;-30
2023/12/06 00:38:52;;;;;;;3.30;0.63;;;;;;;17.34;51.14;96087.69;10397585;28;20041;-30
2023/12/06 00:43:53;;;;;;;2.70;0.88;;;;;;;17.34;51.64;96086.00;10400362;28;20874;-29
2023/12/06 00:48:54;;;;;;;3.80;0.60;;;;;;;17.33;51.99;96089.38;10402615;28;20035;-30
2023/12/06 00:53:54;;;;;;;2.03;0.70;;;;;;;17.35;51.30;96102.03;10406458;28;20037;-30
2023/12/06 00:58:55;;;;;;;2.33;0.73;;;;;;;17.31;51.33;96087.72;10390842;28;20630;-30
2023/12/06 01:03:55;;;;;;;2.22;0.65;;;;;;;17.37;51.67;96097.81;10391562;28;20451;-30
2023/12/06 01:08:55;;;;;;;2.93;0.70;;;;;;;17.34;52.56;96106.22;10401567;28;20033;-29
2023/12/06 01:13:56;;;;;;;2.60;0.73;;;;;;;17.35;52.47;96109.63;10404370;28;20283;-29
2023/12/06 01:18:56;;;;;;;3.53;0.80;;;;;;;17.34;51.88;96113.81;10403614;28;20032;-30
2023/12/06 01:23:56;;;;;;;1.87;0.70;;;;;;;17.36;51.63;96121.44;10395314;28;20319;-30
2023/12/06 01:28:57;;;;;;;6.87;0.90;;;;;;;17.33;52.25;96126.50;10393066;28;20080;-29
2023/12/06 01:33:57;;;;;;;1.10;0.43;;;;;;;17.34;52.06;96128.19;10395168;28;20037;-29
2023/12/06 01:38:58;;;;;;;3.43;0.97;;;;;;;17.34;51.57;96138.28;10403029;28;20037;-30
2023/12/06 01:44:00;;;;;;;2.85;0.93;;;;;;;17.34;52.02;96139.13;10400443;28;20034;-30
2023/12/06 01:49:02;;;;;;;2.63;0.80;;;;;;;17.35;51.85;96139.97;10396828;28;20037;-30
2023/12/06 01:54:02;;;;;;;2.72;0.50;;;;;;;17.33;51.81;96150.09;10393182;28;20033;-30
2023/12/06 01:59:04;;;;;;;1.85;0.70;;;;;;;17.34;51.82;96148.41;10404717;28;20077;-31
2023/12/06 02:04:04;;;;;;;1.98;0.63;;;;;;;17.35;51.82;96150.09;10394624;28;20041;-29
2023/12/06 02:09:05;;;;;;;2.25;0.73;;;;;;;17.36;51.68;96149.28;10392882;28;20414;-30
2023/12/06 02:14:06;;;;;;;2.88;0.47;;;;;;;17.34;52.34;96158.53;10403658;28;20411;-30
2023/12/06 02:19:10;;;;;;;1.55;0.60;;;;;;;17.35;51.58;96152.63;10408716;28;20033;-31
2023/12/06 02:24:12;;;;;;;1.25;0.50;;;;;;;17.31;51.79;96154.31;10399409;28;20108;-29
2023/12/06 02:29:12;;;;;;;0.77;0.50;;;;;;;17.31;51.96;96149.25;10401450;28;20041;-30
2023/12/06 02:34:17;;;;;;;2.50;0.70;;;;;;;17.33;52.00;96151.81;10407198;28;20034;-30
2023/12/06 02:39:17;;;;;;;1.75;0.90;;;;;;;17.34;52.23;96154.31;10399875;28;20292;-32
2023/12/06 02:44:18;;;;;;;3.33;0.65;;;;;;;17.31;51.88;96156.84;10407146;28;20399;-31
2023/12/06 02:49:18;;;;;;;4.88;0.88;;;;;;;17.33;52.04;96159.38;10415958;28;20120;-31
2023/12/06 02:54:19;;;;;;;2.00;0.93;;;;;;;17.29;52.24;96155.16;10408311;28;20064;-30
2023/12/06 02:59:19;;;;;;;3.63;1.60;;;;;;;17.33;51.83;96157.69;10406037;28;20108;-29
2023/12/06 03:04:19;;;;;;;2.57;0.83;;;;;;;17.32;51.59;96150.13;10401407;28;20037;-32
2023/12/06 03:09:20;;;;;;;3.53;0.77;;;;;;;17.32;51.99;96155.19;10404242;28;20038;-30
2023/12/06 03:14:20;;;;;;;1.50;0.50;;;;;;;17.32;52.07;96150.13;10406028;28;20044;-30
2023/12/06 03:19:20;;;;;;;3.30;0.73;;;;;;;17.35;51.37;96157.69;10410381;28;20411;-30
2023/12/06 03:24:21;;;;;;;2.30;0.40;;;;;;;17.34;51.90;96173.72;10396554;28;20507;-30
2023/12/06 03:29:21;;;;;;;3.50;1.13;;;;;;;17.25;51.58;96154.34;10404742;28;20120;-30
2023/12/06 03:34:21;;;;;;;1.87;0.67;;;;;;;17.36;51.56;96164.47;10410417;28;20025;-30
2023/12/06 03:39:22;;;;;;;3.30;0.37;;;;;;;17.34;51.74;96169.47;10406985;28;20042;-31
2023/12/06 03:44:25;;;;;;;1.73;1.23;;;;;;;17.34;51.64;96166.94;10406592;28;20114;-30
2023/12/06 03:49:25;;;;;;;1.08;0.65;;;;;;;17.34;51.76;96169.47;10405041;28;20386;-30
2023/12/06 03:54:26;;;;;;;2.57;0.50;;;;;;;17.33;51.67;96167.81;10405463;28;20562;-30
2023/12/06 03:59:27;;;;;;;1.60;0.63;;;;;;;17.34;51.39;96166.94;10407748;28;20295;-30
2023/12/06 04:04:27;;;;;;;1.42;0.60;;;;;;;17.33;51.75;96165.28;10408379;28;20033;-30
2023/12/06 04:09:27;;;;;;;3.37;0.70;;;;;;;17.31;51.88;96153.50;10403957;28;20038;-30
2023/12/06 04:14:28;;;;;;;3.00;0.50;;;;;;;17.34;51.66;96156.00;10401381;28;20093;-29
2023/12/06 04:19:28;;;;;;;1.07;0.57;;;;;;;17.34;51.85;96164.41;10402583;28;20037;-30
2023/12/06 04:24:30;;;;;;;2.37;0.50;;;;;;;17.33;51.69;96167.81;10409205;28;20041;-30
2023/12/06 04:29:31;;;;;;;1.50;0.40;;;;;;;17.34;51.68;96173.72;10400992;28;20084;-30
2023/12/06 04:34:32;;;;;;;1.52;0.60;;;;;;;17.22;51.88;96150.97;10396910;28;20884;-30
2023/12/06 04:39:33;;;;;;;4.43;0.70;;;;;;;17.36;51.91;96174.56;10405106;28;20046;-30
2023/12/06 04:44:33;;;;;;;2.53;0.77;;;;;;;17.33;52.32;96164.44;10406168;28;20107;-30
2023/12/06 04:49:33;;;;;;;1.90;0.50;;;;;;;17.34;51.83;96166.94;10402649;28;20060;-31
2023/12/06 04:54:34;;;;;;;1.43;0.70;;;;;;;17.33;51.82;96177.94;10399155;28;20043;-30
2023/12/06 04:59:34;;;;;;;1.43;0.60;;;;;;;17.34;51.82;96174.53;10411355;28;20084;-30
2023/12/06 05:04:34;;;;;;;3.83;0.53;;;;;;;17.32;51.64;96176.25;10405023;28;20388;-29
2023/12/06 05:09:35;;;;;;;1.20;0.67;;;;;;;17.38;51.50;96183.00;10401412;28;20296;-29
2023/12/06 05:14:35;;;;;;;1.02;0.43;;;;;;;16.98;49.03;96184.78;10402569;28;20048;-30
2023/12/06 05:19:36;;;;;;;2.13;0.67;;;;;;;17.12;48.58;96189.81;10406648;28;20514;-29
2023/12/06 05:24:36;;;;;;;1.57;0.40;;;;;;;17.26;48.94;96195.69;10399756;28;20124;-29
2023/12/06 05:29:36;;;;;;;0.53;0.50;;;;;;;17.30;49.20;96198.19;10396805;28;20044;-29
2023/12/06 05:34:37;;;;;;;3.33;0.70;;;;;;;17.28;48.93;96204.09;10393584;28;20485;-29
2023/12/06 05:39:38;;;;;;;2.50;0.80;;;;;;;17.12;49.16;96183.09;10399328;28;20037;-30
2023/12/06 05:44:38;;;;;;;2.30;0.75;;;;;;;17.30;49.55;96208.31;10391010;28;20400;-30
2023/12/06 05:49:39;;;;;;;4.50;0.70;;;;;;;17.34;49.87;96204.09;10402082;28;20040;-30
2023/12/06 05:54:39;;;;;;;4.33;0.80;;;;;;;17.25;49.78;96194.00;10413631;28;20036;-30
2023/12/06 05:59:39;;;;;;;1.23;0.60;;;;;;;17.37;49.56;96210.00;10398208;28;20057;-30
2023/12/06 06:04:40;;;;;;;3.37;0.77;;;;;;;17.36;49.67;96215.06;10400210;28;20080;-30
2023/12/06 06:09:40;;;;;;;2.23;0.73;;;;;;;17.36;50.25;96208.31;10396418;28;20048;-29
2023/12/06 06:14:41;;;;;;;2.17;0.70;;;;;;;17.37;49.96;96214.22;10405008;28;20029;-30
2023/12/06 06:19:41;;;;;;;3.00;0.73;;;;;;;17.38;49.75;96218.41;10398410;28;20038;-30
2023/12/06 06:24:41;;;;;;;4.05;0.70;;;;;;;17.34;50.57;96215.03;10405226;28;20038;-32
2023/12/06 06:29:44;;;;;;;4.07;1.08;;;;;;;17.04;48.58;96216.81;10398776;28;20061;-30
2023/12/06 06:34:44;;;;;;;6.13;1.15;;;;;;;17.20;49.25;96216.78;10405331;28;20052;-30
2023/12/06 06:39:44;;;;;;;5.33;0.80;;;;;;;17.26;48.90;96226.03;10399688;28;20038;-30
2023/12/06 06:44:45;;;;;;;4.43;1.23;;;;;;;17.25;49.57;96239.53;10391347;28;20524;-30
2023/12/06 06:49:45;;;;;;;3.17;1.05;;;;;;;17.28;49.71;96232.78;10399857;28;20046;-30
2023/12/06 06:54:46;;;;;;;10.83;1.20;;;;;;;17.31;49.43;96254.69;10409297;28;20029;-30
2023/12/06 06:59:46;;;;;;;3.40;0.93;;;;;;;17.27;49.77;96258.06;10397558;28;20088;-31
2023/12/06 07:04:47;;;;;;;5.20;1.13;;;;;;;17.28;49.52;96265.66;10394981;28;20041;-30
2023/12/06 07:09:47;;;;;;;5.10;0.80;;;;;;;17.30;49.07;96273.22;10389036;28;20188;-29
2023/12/06 07:14:48;;;;;;;5.63;0.93;;;;;;;17.24;50.07;96293.50;10393671;28;20156;-30
2023/12/06 07:19:48;;;;;;;4.57;1.20;;;;;;;17.21;49.64;96288.44;10388476;28;20037;-32
2023/12/06 07:24:48;;;;;;;3.17;0.97;;;;;;;17.22;49.75;96300.22;10402793;28;20392;-31
2023/12/06 07:29:49;;;;;;;2.08;0.88;;;;;;;17.25;49.57;96315.44;10398177;28;20102;-29
2023/12/06 07:34:49;;;;;;;4.53;1.20;;;;;;;17.24;49.48;96328.91;10396946;28;20049;-30
2023/12/06 07:39:49;;;;;;;4.23;0.90;;;;;;;17.24;49.84;96332.28;10393145;28;20034;-30
2023/12/06 07:44:50;;;;;;;1.90;1.10;;;;;;;17.26;49.61;96337.34;10389492;28;20048;-29
2023/12/06 07:49:50;;;;;;;1.83;1.10;;;;;;;17.28;49.65;96343.22;10390962;28;20037;-30
2023/12/06 07:54:51;;;;;;;3.23;1.20;;;;;;;17.28;49.72;96345.75;10391563;28;20030;-30
2023/12/06 07:59:52;;;;;;;7.65;2.38;;;;;;;17.27;49.09;96350.00;10392749;28;20045;-30
2023/12/06 08:04:52;;;;;;;2.80;1.60;;;;;;;17.24;48.69;96349.97;10393206;28;20040;-30
2023/12/06 08:09:53;;;;;;;3.13;1.20;;;;;;;17.16;48.50;96351.69;10390749;28;20038;-29
2023/12/06 08:14:53;;;;;;;6.20;1.17;;;;;;;17.15;48.23;96354.22;10391477;28;20540;-30
2023/12/06 08:19:53;;;;;;;2.90;0.87;;;;;;;17.17;48.98;96357.59;10390501;28;20108;-29
2023/12/06 08:24:59;;;;;;;3.33;1.13;;;;;;;17.16;48.05;96366.03;10390052;28;20038;-30
2023/12/06 08:30:00;;;;;;;2.70;1.00;;;;;;;17.15;47.21;96357.59;10394423;28;20034;-30
2023/12/06 08:35:01;;;;;;;1.73;0.73;;;;;;;17.16;47.01;96371.09;10388765;28;20069;-30
2023/12/06 08:40:02;;;;;;;1.00;0.80;;;;;;;17.07;46.22;96371.91;10393029;28;20455;-31
2023/12/06 08:45:03;;;;;;;0.88;0.55;;;;;;;17.15;46.28;96379.53;10390030;28;20061;-30
2023/12/06 08:50:04;;;;;;;2.78;0.98;;;;;;;17.07;47.57;96378.69;10385055;28;20119;-30
2023/12/06 08:55:06;;;;;;;2.35;0.85;;;;;;;17.11;48.05;96383.75;10391808;28;20045;-30
2023/12/06 09:00:07;;;;;;;1.10;0.55;;;;;;;17.11;48.05;96391.31;10394391;28;20388;-30
2023/12/06 09:05:10;;;;;;;2.90;0.93;;;;;;;17.10;48.70;96402.28;10391413;28;20037;-30
2023/12/06 09:10:11;;;;;;;3.88;0.80;;;;;;;17.12;48.99;96399.75;10393818;28;20497;-29
2023/12/06 09:15:11;;;;;;;2.23;0.77;;;;;;;17.06;49.34;96389.66;10390447;28;20033;-30
2023/12/06 09:20:12;;;;;;;2.13;0.87;;;;;;;17.10;48.74;96402.28;10400362;28;20044;-30
2023/12/06 09:25:12;;;;;;;3.20;0.60;;;;;;;17.11;46.33;96413.22;10401478;28;20036;-32
2023/12/06 09:30:13;;;;;;;3.60;0.85;;;;;;;17.10;46.96;96424.19;10404777;28;20098;-30
2023/12/06 09:35:13;;;;;;;1.33;0.40;;;;;;;17.07;47.78;96422.50;10400593;28;20041;-30
2023/12/06 09:40:13;;;;;;;2.80;0.70;;;;;;;17.08;46.89;96423.34;10401486;28;20045;-30
2023/12/06 09:45:14;;;;;;;1.10;0.70;;;;;;;17.05;48.01;96413.22;10401671;28;20765;-30
2023/12/06 09:50:15;;;;;;;1.33;0.70;;;;;;;17.10;47.44;96426.72;10399903;28;20292;-30
2023/12/06 09:55:18;;;;;;;2.20;0.60;;;;;;;17.11;45.74;96428.41;10401600;28;20491;-30
2023/12/06 10:00:19;;;;;;;0.77;0.50;;;;;;;17.11;46.07;96433.47;10397491;28;20065;-30
2023/12/06 10:05:20;;;;;;;1.40;0.60;;;;;;;17.10;46.16;96440.22;10395714;28;20056;-30
2023/12/06 10:10:22;;;;;;;1.98;0.77;;;;;;;17.13;46.43;96446.94;10395910;28;20029;-30
2023/12/06 10:15:23;;;;;;;1.80;0.60;;;;;;;17.11;47.92;96452.03;10394468;28;20037;-30
2023/12/06 10:20:24;;;;;;;0.95;0.63;;;;;;;17.10;45.96;96452.00;10397009;28;20048;-30
2023/12/06 10:25:24;;;;;;;0.83;0.47;;;;;;;17.09;46.46;96455.38;10397021;28;20029;-30
2023/12/06 10:30:25;;;;;;;0.60;0.50;;;;;;;17.09;48.50;96461.28;10406009;28;20765;-30
2023/12/06 10:35:26;;;;;;;0.77;0.57;;;;;;;17.09;48.79;96456.22;10400591;28;20038;-30
2023/12/06 10:40:28;;;;;;;0.68;0.50;;;;;;;17.09;48.00;96457.91;10399893;28;20037;-30
2023/12/06 10:45:32;;;;;;;1.13;0.63;;;;;;;17.08;48.75;96457.06;10395807;28;20159;-30
2023/12/06 10:50:34;;;;;;;1.98;0.52;;;;;;;17.08;48.22;96458.75;10387004;28;20040;-31
2023/12/06 10:55:37;;;;;;;1.85;0.80;;;;;;;17.10;49.26;96457.06;10400683;28;20044;-30
2023/12/06 11:00:37;;;;;;;0.98;0.57;;;;;;;17.10;49.86;96457.94;10392410;28;20069;-30
2023/12/06 11:05:44;;;;;;;1.05;0.65;;;;;;;17.10;46.93;96452.00;10395210;28;20030;-30
2023/12/06 11:10:56;;;;;;;;;;;;;;;17.09;47.49;96457.91;10392033;28;20045;-30
2023/12/06 11:16:37;;;;;;;0.65;0.52;;;;;;;17.08;47.76;96454.53;10392408;28;19996;-30
2023/12/06 11:21:37;;;;;;;0.68;0.63;;;;;;;17.08;48.22;96459.59;10391530;28;20030;-30
2023/12/06 11:26:38;;;;;;;0.32;0.32;;;;;;;17.08;47.86;96448.66;10387406;28;20030;-30
2023/12/06 11:31:40;;;;;;;0.77;0.47;;;;;;;17.07;47.09;96452.84;10391999;28;20060;-30
2023/12/06 11:36:41;;;;;;;1.58;0.60;;;;;;;17.08;46.81;96452.00;10387819;28;20034;-30
2023/12/06 11:41:45;;;;;;;1.00;0.50;;;;;;;17.10;45.84;96446.97;10390483;28;20034;-30
2023/12/06 11:46:53;;;;;;;0.63;0.40;;;;;;;17.09;45.96;96452.88;10380622;28;20183;-30
2023/12/06 11:52:04;;;;;;;1.42;0.98;;;;;;;17.10;47.05;96452.00;10386587;28;20022;-30
2023/12/06 11:57:06;;;;;;;1.38;0.63;;;;;;;17.09;45.94;96435.16;10384251;28;20458;-30
2023/12/06 12:02:08;;;;;;;2.33;0.40;;;;;;;17.12;46.70;96455.38;10386476;28;20095;-29
2023/12/06 12:07:09;;;;;;;0.40;0.40;;;;;;;17.08;46.39;96446.13;10390403;28;20076;-30
2023/12/06 12:12:09;;;;;;;0.68;0.40;;;;;;;17.14;47.01;96448.66;10383728;28;20456;-30
2023/12/06 12:17:09;;;;;;;0.50;0.40;;;;;;;17.14;47.58;96458.78;10382531;28;20029;-30
2023/12/06 12:22:11;;;;;;;1.13;0.50;;;;;;;17.08;47.85;96438.53;10389597;28;20492;-30
2023/12/06 12:27:12;;;;;;;0.95;0.50;;;;;;;17.13;46.41;96462.97;10382342;28;20033;-30
2023/12/06 12:32:12;;;;;;;0.87;0.40;;;;;;;17.15;47.19;96465.53;10388665;28;20033;-30
2023/12/06 12:37:13;;;;;;;0.70;0.50;;;;;;;17.17;46.24;96453.72;10381432;28;20033;-30
2023/12/06 12:42:13;;;;;;;0.38;0.30;;;;;;;17.17;46.79;96463.84;10387109;28;20040;-30
2023/12/06 12:47:14;;;;;;;1.88;0.50;;;;;;;17.17;46.47;96466.34;10378528;28;20041;-30
2023/12/06 12:52:16;;;;;;;0.88;0.45;;;;;;;17.16;46.42;96470.56;10390931;28;20415;-30
2023/12/06 12:57:16;;;;;;;1.85;0.60;;;;;;;17.14;44.76;96473.97;10384628;28;20058;-30
2023/12/06 13:02:17;;;;;;;0.40;0.40;;;;;;;17.15;46.71;96478.16;10377914;28;20144;-30
2023/12/06 13:07:17;;;;;;;1.05;0.77;;;;;;;17.12;47.39;96480.69;10384586;28;20061;-29
2023/12/06 13:12:17;;;;;;;1.53;0.50;;;;;;;17.08;47.60;96479.00;10380438;28;20053;-29
2023/12/06 13:17:19;;;;;;;1.63;0.50;;;;;;;17.10;47.05;96493.34;10393241;28;20052;-29
2023/12/06 13:22:20;;;;;;;1.58;0.60;;;;;;;17.11;45.98;96489.97;10399023;28;20038;-30
2023/12/06 13:27:21;;;;;;;0.97;0.60;;;;;;;17.15;46.38;96496.69;10397700;28;20553;-30
2023/12/06 13:32:22;;;;;;;2.85;0.93;;;;;;;17.10;47.58;96492.47;10398209;28;20079;-29
2023/12/06 13:37:22;;;;;;;5.95;1.35;;;;;;;17.05;46.93;96499.22;10414627;28;20071;-32
2023/12/06 13:42:23;;;;;;;1.30;0.70;;;;;;;17.10;48.51;96507.66;10404088;28;20036;-31
2023/12/06 13:47:24;;;;;;;2.58;0.68;;;;;;;17.09;47.87;96501.75;10403372;28;20083;-30
2023/12/06 13:52:24;;;;;;;0.90;0.80;;;;;;;17.11;46.15;96496.69;10424004;28;20033;-32
2023/12/06 13:57:25;;;;;;;0.67;0.57;;;;;;;17.10;45.93;96500.06;10412586;28;20033;-30
2023/12/06 14:02:25;;;;;;;1.27;0.60;;;;;;;17.11;46.35;96504.28;10407061;28;20043;-30
2023/12/06 14:07:26;;;;;;;2.10;0.57;;;;;;;17.12;46.47;96493.31;10432535;28;20029;-31
2023/12/06 14:12:26;;;;;;;1.55;0.60;;;;;;;17.13;47.75;96495.00;10419868;28;20146;-30
2023/12/06 14:17:28;;;;;;;1.33;0.60;;;;;;;17.14;46.07;96499.25;10425466;28;20594;-30
2023/12/06 14:22:28;;;;;;;1.55;0.68;;;;;;;17.11;46.91;96506.81;10418898;28;20064;-31
2023/12/06 14:27:29;;;;;;;1.03;0.60;;;;;;;17.13;46.23;96507.66;10427886;28;20051;-31
2023/12/06 14:32:29;;;;;;;1.83;0.60;;;;;;;17.12;46.64;96521.16;10412040;28;20310;-30
2023/12/06 14:37:29;;;;;;;1.00;0.70;;;;;;;17.14;47.81;96529.59;10414561;28;21066;-30
2023/12/06 14:42:30;;;;;;;1.17;0.50;;;;;;;17.13;45.84;96530.41;10414598;28;20382;-30
2023/12/06 14:47:30;;;;;;;1.43;0.60;;;;;;;17.15;44.90;96541.41;10420697;28;20092;-31
2023/12/06 14:52:31;;;;;;;0.80;0.40;;;;;;;17.13;45.33;96548.97;10420005;28;20113;-31
2023/12/06 14:57:31;;;;;;;0.85;0.50;;;;;;;17.13;45.56;96560.78;10408699;28;20037;-30
2023/12/06 15:02:31;;;;;;;0.70;0.40;;;;;;;17.14;45.32;96559.97;10408804;28;20042;-30
2023/12/06 15:07:32;;;;;;;0.93;0.70;;;;;;;17.13;45.72;96566.69;10414454;28;20128;-30
2023/12/06 15:12:32;;;;;;;0.40;0.40;;;;;;;17.13;45.94;96571.75;10409800;28;20044;-30
2023/12/06 15:17:33;;;;;;;1.10;0.63;;;;;;;17.11;45.90;96577.63;10397878;28;20543;-31
2023/12/06 15:22:33;;;;;;;0.82;0.50;;;;;;;17.15;45.53;96586.94;10403864;28;20041;-30
2023/12/06 15:27:34;;;;;;;0.93;0.60;;;;;;;17.15;46.30;96586.94;10411338;28;20187;-30
2023/12/06 15:32:34;;;;;;;1.03;0.57;;;;;;;17.14;45.89;96582.72;10421401;28;20487;-30
2023/12/06 15:37:34;;;;;;;0.53;0.50;;;;;;;17.16;45.46;96598.75;10391641;28;20342;-30
2023/12/06 15:42:35;;;;;;;0.50;0.40;;;;;;;17.16;44.88;96604.63;10406310;28;20040;-30
2023/12/06 15:47:35;;;;;;;1.63;0.60;;;;;;;17.17;45.47;96600.44;10411308;28;20124;-30
2023/12/06 15:52:35;;;;;;;1.83;0.47;;;;;;;17.19;45.81;96613.91;10410836;28;20554;-30
2023/12/06 15:57:36;;;;;;;1.03;0.50;;;;;;;17.14;45.64;96620.66;10414846;28;20415;-30
2023/12/06 16:02:36;;;;;;;1.53;1.00;;;;;;;17.16;47.53;96634.16;10412140;28;20080;-30
2023/12/06 16:07:37;;;;;;;1.23;0.57;;;;;;;17.17;46.09;96636.69;10400903;28;20034;-29
2023/12/06 16:12:40;;;;;;;1.42;0.82;;;;;;;17.16;45.93;96649.34;10400834;28;20072;-30
2023/12/06 16:17:41;;;;;;;0.82;0.57;;;;;;;17.15;45.87;96650.19;10405484;28;20065;-30
2023/12/06 16:22:41;;;;;;;0.77;0.50;;;;;;;17.07;46.82;96640.00;10402633;28;20029;-31
2023/12/06 16:27:41;;;;;;;0.87;0.70;;;;;;;17.13;46.90;96654.38;10409662;28;20563;-31
2023/12/06 16:32:42;;;;;;;0.80;0.70;;;;;;;17.15;46.81;96667.88;10406070;28;20033;-30
2023/12/06 16:37:42;;;;;;;0.50;0.50;;;;;;;17.16;46.27;96677.16;10397167;28;20057;-30
2023/12/06 16:42:42;;;;;;;1.00;0.70;;;;;;;17.17;46.66;96682.22;10398616;28;20095;-29
2023/12/06 16:47:43;;;;;;;0.83;0.70;;;;;;;17.15;47.29;96698.25;10412387;28;20357;-30
2023/12/06 16:52:43;;;;;;;0.90;0.60;;;;;;;17.17;46.79;96706.69;10402227;28;20037;-30
2023/12/06 16:57:43;;;;;;;0.50;0.40;;;;;;;17.18;46.78;96718.47;10412555;28;20052;-30
2023/12/06 17:02:46;;;;;;;0.70;0.70;;;;;;;17.17;45.98;96727.75;10389541;28;20400;-29
2023/12/06 17:07:46;;;;;;;0.55;0.55;;;;;;;17.17;45.56;96721.84;10396199;28;20045;-30
2023/12/06 17:12:47;;;;;;;0.90;0.60;;;;;;;17.18;46.11;96731.13;10416495;28;20503;-30
2023/12/06 17:17:48;;;;;;;0.80;0.77;;;;;;;17.18;46.01;96739.59;10405993;28;20738;-30
2023/12/06 17:22:48;;;;;;;0.70;0.60;;;;;;;17.19;47.27;96741.28;10405895;28;20037;-29
2023/12/06 17:27:48;;;;;;;0.93;0.50;;;;;;;17.19;46.39;96745.47;10403994;28;20059;-30
2023/12/06 17:32:49;;;;;;;1.07;0.60;;;;;;;17.16;45.79;96751.34;10402064;28;20025;-30
2023/12/06 17:37:49;;;;;;;0.50;0.43;;;;;;;17.19;46.69;96760.66;10403546;28;20033;-30
2023/12/06 17:42:49;;;;;;;1.27;0.60;;;;;;;17.13;45.99;96760.59;10410754;28;20038;-29
2023/12/06 17:47:50;;;;;;;0.97;0.60;;;;;;;17.16;46.22;96770.75;10408811;28;20033;-30
2023/12/06 17:52:50;;;;;;;0.68;0.50;;;;;;;17.16;47.13;96773.28;10409235;28;20295;-30
2023/12/06 17:57:51;;;;;;;0.90;0.60;;;;;;;17.17;46.24;96777.50;10406815;28;20597;-30
2023/12/06 18:02:51;;;;;;;1.03;0.60;;;;;;;17.17;46.09;96778.34;10409284;28;20548;-30
2023/12/06 18:07:51;;;;;;;0.70;0.50;;;;;;;17.19;45.66;96771.63;10398823;28;20096;-30
2023/12/06 18:12:55;;;;;;;2.23;0.60;;;;;;;17.19;46.07;96783.41;10400295;28;20321;-31
2023/12/06 18:17:56;;;;;;;0.52;0.52;;;;;;;17.18;46.22;96789.31;10402820;28;20492;-29
2023/12/06 18:22:56;;;;;;;1.17;0.80;;;;;;;17.17;45.99;96796.03;10396329;28;20040;-29
2023/12/06 18:27:57;;;;;;;0.60;0.60;;;;;;;17.18;45.64;96804.50;10395110;28;20021;-30
2023/12/06 18:32:57;;;;;;;0.73;0.50;;;;;;;17.18;46.49;96807.88;10393926;28;20071;-30
2023/12/06 18:37:57;;;;;;;0.90;0.80;;;;;;;17.17;46.92;96808.69;10396348;28;20084;-31
2023/12/06 18:42:58;;;;;;;0.50;0.50;;;;;;;17.15;46.56;96801.97;10411178;28;20053;-29
2023/12/06 18:47:59;;;;;;;1.27;0.70;;;;;;;17.17;47.59;96805.34;10408583;28;20090;-29
2023/12/06 18:52:59;;;;;;;1.02;0.70;;;;;;;17.18;46.87;96809.56;10410042;28;20116;-30
2023/12/06 18:58:00;;;;;;;1.00;0.60;;;;;;;17.16;46.18;96801.94;10409060;28;20048;-29
2023/12/06 19:03:00;;;;;;;0.60;0.60;;;;;;;17.18;46.02;96812.94;10411191;28;20037;-29
2023/12/06 19:08:01;;;;;;;0.43;0.43;;;;;;;17.17;46.74;96812.94;10402565;28;20035;-29
2023/12/06 19:13:02;;;;;;;0.50;0.50;;;;;;;17.17;46.16;96825.56;10412018;28;20055;-30
2023/12/06 19:18:02;;;;;;;3.13;0.90;;;;;;;17.09;45.65;96829.75;10397726;28;20832;-31
2023/12/06 19:23:02;;;;;;;3.80;1.00;;;;;;;17.15;45.24;96829.78;10398420;28;20041;-31
2023/12/06 19:28:03;;;;;;;2.30;0.60;;;;;;;17.18;45.20;96832.31;10409017;28;20107;-30
2023/12/06 19:33:03;;;;;;;5.72;1.30;;;;;;;17.23;47.31;96833.22;10408727;28;20514;-33
2023/12/06 19:38:04;;;;;;;0.83;0.70;;;;;;;17.21;46.49;96829.81;10405306;28;20033;-30
2023/12/06 19:43:04;;;;;;;0.90;0.70;;;;;;;17.20;45.69;96833.19;10411451;28;20548;-29
2023/12/06 19:48:08;;;;;;;2.30;0.77;;;;;;;17.22;45.41;96834.88;10400951;28;20043;-32
2023/12/06 19:53:08;;;;;;;1.05;0.70;;;;;;;17.22;46.06;96831.50;10400740;28;20498;-31
2023/12/06 19:58:08;;;;;;;3.63;1.00;;;;;;;17.22;46.28;96831.50;10394816;28;20029;-30
2023/12/06 20:03:09;;;;;;;2.07;1.13;;;;;;;17.26;48.98;96830.69;10394511;28;20067;-30
2023/12/06 20:08:10;;;;;;;2.13;1.08;;;;;;;17.27;48.77;96840.84;10398329;28;20045;-30
2023/12/06 20:13:10;;;;;;;3.97;0.88;;;;;;;17.28;47.85;96826.47;10395009;28;20044;-30
2023/12/06 20:18:10;;;;;;;3.20;1.48;;;;;;;17.23;48.53;96823.09;10400833;28;20029;-30
2023/12/06 20:23:11;;;;;;;1.87;1.10;;;;;;;17.27;48.75;96825.66;10398646;28;20379;-32
2023/12/06 20:28:11;;;;;;;1.63;1.07;;;;;;;17.29;47.58;96823.97;10396303;28;20091;-30
2023/12/06 20:33:11;;;;;;;1.63;0.93;;;;;;;17.28;48.02;96829.00;10398298;28;20338;-30
2023/12/06 20:38:12;;;;;;;1.53;1.13;;;;;;;17.28;48.21;96831.53;10392642;28;20041;-30
2023/12/06 20:43:12;;;;;;;1.23;1.13;;;;;;;17.29;47.83;96820.59;10403954;28;20507;-30
2023/12/06 20:48:12;;;;;;;1.40;0.97;;;;;;;17.30;48.38;96824.81;10385529;28;20614;-30
2023/12/06 20:53:13;;;;;;;3.88;0.70;;;;;;;17.24;48.80;96832.38;10393351;28;20503;-31
2023/12/06 20:58:13;;;;;;;0.67;0.67;;;;;;;17.23;48.46;96828.16;10390331;28;20060;-30
2023/12/06 21:03:14;;;;;;;1.33;0.70;;;;;;;17.27;48.43;96824.78;10399719;28;20307;-30
2023/12/06 21:08:14;;;;;;;2.47;0.80;;;;;;;17.28;49.46;96826.47;10395782;28;20568;-30
2023/12/06 21:13:15;;;;;;;0.95;0.80;;;;;;;17.22;49.69;96832.34;10400470;28;20022;-30
2023/12/06 21:18:16;;;;;;;7.97;1.00;;;;;;;17.20;49.80;96835.69;10399794;28;20025;-30
2023/12/06 21:23:17;;;;;;;3.40;0.90;;;;;;;17.20;49.84;96838.25;10401982;28;20041;-30
2023/12/06 21:28:17;;;;;;;3.53;0.80;;;;;;;17.23;49.80;96841.63;10399287;28;20037;-30
2023/12/06 21:33:17;;;;;;;2.17;1.20;;;;;;;17.22;49.21;96839.09;10401314;28;20040;-29
2023/12/06 21:38:20;;;;;;;2.35;0.63;;;;;;;17.27;49.09;96845.03;10407708;28;20037;-29
2023/12/06 21:43:20;;;;;;;3.00;1.10;;;;;;;17.29;49.28;96843.34;10413836;28;20045;-30
2023/12/06 21:48:20;;;;;;;3.42;1.20;;;;;;;17.27;49.35;96847.56;10409949;28;20748;-30
2023/12/06 21:53:22;;;;;;;1.20;0.70;;;;;;;17.26;48.48;96848.41;10407156;28;20040;-30
2023/12/06 21:58:22;;;;;;;1.50;0.82;;;;;;;17.30;48.31;96839.97;10398425;28;20037;-29
2023/12/06 22:03:22;;;;;;;4.87;0.90;;;;;;;17.23;48.59;96835.75;10409014;28;20040;-30
2023/12/06 22:08:23;;;;;;;2.38;0.68;;;;;;;17.33;48.67;96855.22;10399958;28;20426;-30
2023/12/06 22:13:23;;;;;;;1.33;1.00;;;;;;;17.30;48.85;96847.56;10406469;28;20025;-30
2023/12/06 22:18:23;;;;;;;1.90;1.07;;;;;;;17.32;49.25;96853.50;10402188;28;20078;-30
2023/12/06 22:23:24;;;;;;;2.00;0.93;;;;;;;17.21;49.62;96840.78;10398057;28;20499;-30
2023/12/06 22:28:24;;;;;;;2.45;0.80;;;;;;;17.31;49.79;96861.94;10397088;28;20406;-30
2023/12/06 22:33:25;;;;;;;2.35;1.00;;;;;;;17.29;50.15;96873.72;10399164;28;20426;-31
2023/12/06 22:38:25;;;;;;;2.07;0.70;;;;;;;17.27;50.87;96880.47;10397607;28;20040;-30
2023/12/06 22:43:25;;;;;;;3.10;1.10;;;;;;;17.29;49.86;96876.25;10396376;28;20064;-30
2023/12/06 22:48:26;;;;;;;1.07;0.70;;;;;;;17.29;50.85;96878.78;10399737;28;20029;-30
2023/12/06 22:53:26;;;;;;;2.47;0.77;;;;;;;17.30;49.54;96888.06;10393745;28;20037;-30
2023/12/06 22:58:27;;;;;;;2.55;0.70;;;;;;;17.29;50.67;96893.97;10396855;28;20030;-30
2023/12/06 23:03:27;;;;;;;3.30;0.80;;;;;;;17.26;50.85;96886.38;10396239;28;20716;-30
2023/12/06 23:08:27;;;;;;;3.63;1.20;;;;;;;17.28;50.80;96897.34;10393823;28;20036;-30
2023/12/06 23:13:28;;;;;;;1.63;0.90;;;;;;;17.27;51.41;96900.69;10401259;28;20021;-30
2023/12/06 23:18:28;;;;;;;2.60;0.70;;;;;;;17.26;50.90;96904.91;10391764;28;20116;-29